sensor_id;sensor_type;location;lat;lon;timestamp;temperature;humidity
58519;DHT22;44310;48.106;12.008;2022-09-27T00:01:22;19.50;79.50
58519;DHT22;44310;48.106;12.008;2022-09-27T00:03:52;19.50;80.20
58519;DHT22;44310;48.106;12.008;2022-09-27T00:06:29;19.40;79.70
58519;DHT22;44310;48.106;12.008;2022-09-27T00:08:58;19.50;79.80
58519;DHT22;44310;48.106;12.008;2022-09-27T00:11:36;19.40;79.80
58519;DHT22;44310;48.106;12.008;2022-09-27T00:14:05;19.40;79.80
58519;DHT22;44310;48.106;12.008;2022-09-27T00:16:35;19.40;79.90
58519;DHT22;44310;48.106;12.008;2022-09-27T00:19:06;19.30;79.90
58519;DHT22;44310;48.106;12.008;2022-09-27T00:21:33;19.30;80.00
58519;DHT22;44310;48.106;12.008;2022-09-27T00:24:01;19.30;80.00
58519;DHT22;44310;48.106;12.008;2022-09-27T00:26:28;19.30;80.20
58519;DHT22;44310;48.106;12.008;2022-09-27T00:28:55;19.30;80.40
58519;DHT22;44310;48.106;12.008;2022-09-27T00:31:25;19.40;80.50
58519;DHT22;44310;48.106;12.008;2022-09-27T00:33:54;19.40;80.40
58519;DHT22;44310;48.106;12.008;2022-09-27T00:36:22;19.40;80.20
58519;DHT22;44310;48.106;12.008;2022-09-27T00:38:50;19.30;80.20
58519;DHT22;44310;48.106;12.008;2022-09-27T00:41:23;19.40;80.20
58519;DHT22;44310;48.106;12.008;2022-09-27T00:43:51;19.40;80.10
58519;DHT22;44310;48.106;12.008;2022-09-27T00:46:35;19.30;80.00
58519;DHT22;44310;48.106;12.008;2022-09-27T00:49:17;19.40;80.10
58519;DHT22;44310;48.106;12.008;2022-09-27T00:51:50;19.40;80.10
58519;DHT22;44310;48.106;12.008;2022-09-27T00:54:20;19.40;80.00
58519;DHT22;44310;48.106;12.008;2022-09-27T00:56:48;19.40;79.80
58519;DHT22;44310;48.106;12.008;2022-09-27T00:59:23;19.40;79.70
58519;DHT22;44310;48.106;12.008;2022-09-27T01:01:52;19.40;80.00
58519;DHT22;44310;48.106;12.008;2022-09-27T01:04:21;19.40;80.20
58519;DHT22;44310;48.106;12.008;2022-09-27T01:06:50;19.40;80.20
58519;DHT22;44310;48.106;12.008;2022-09-27T01:09:18;19.40;80.20
58519;DHT22;44310;48.106;12.008;2022-09-27T01:12:15;19.40;80.10
58519;DHT22;44310;48.106;12.008;2022-09-27T01:15:00;19.40;80.40
58519;DHT22;44310;48.106;12.008;2022-09-27T01:17:48;19.40;80.40
58519;DHT22;44310;48.106;12.008;2022-09-27T01:23:18;19.40;80.30
58519;DHT22;44310;48.106;12.008;2022-09-27T01:26:09;19.40;80.30
58519;DHT22;44310;48.106;12.008;2022-09-27T01:34:17;19.40;80.30
58519;DHT22;44310;48.106;12.008;2022-09-27T01:45:36;19.40;80.40
58519;DHT22;44310;48.106;12.008;2022-09-27T01:48:22;19.50;80.50
58519;DHT22;44310;48.106;12.008;2022-09-27T01:51:19;19.50;80.50
58519;DHT22;44310;48.106;12.008;2022-09-27T01:53:51;19.50;80.50
58519;DHT22;44310;48.106;12.008;2022-09-27T01:56:26;19.50;80.60
58519;DHT22;44310;48.106;12.008;2022-09-27T01:59:10;19.50;80.60
58519;DHT22;44310;48.106;12.008;2022-09-27T02:01:38;19.40;80.60
58519;DHT22;44310;48.106;12.008;2022-09-27T02:04:09;19.50;80.60
58519;DHT22;44310;48.106;12.008;2022-09-27T02:06:40;19.50;80.50
58519;DHT22;44310;48.106;12.008;2022-09-27T02:09:16;19.50;80.50
58519;DHT22;44310;48.106;12.008;2022-09-27T02:11:51;19.50;80.60
58519;DHT22;44310;48.106;12.008;2022-09-27T02:14:40;19.50;80.50
58519;DHT22;44310;48.106;12.008;2022-09-27T02:19:53;19.50;80.50
58519;DHT22;44310;48.106;12.008;2022-09-27T02:22:35;19.50;80.50
58519;DHT22;44310;48.106;12.008;2022-09-27T02:25:17;19.50;81.20
58519;DHT22;44310;48.106;12.008;2022-09-27T02:30:23;19.50;80.50
58519;DHT22;44310;48.106;12.008;2022-09-27T02:32:51;19.50;80.40
58519;DHT22;44310;48.106;12.008;2022-09-27T02:35:23;19.50;80.40
58519;DHT22;44310;48.106;12.008;2022-09-27T02:37:51;19.40;80.30
58519;DHT22;44310;48.106;12.008;2022-09-27T02:40:18;19.50;80.70
58519;DHT22;44310;48.106;12.008;2022-09-27T02:42:46;19.50;81.00
58519;DHT22;44310;48.106;12.008;2022-09-27T02:45:15;19.40;81.30
58519;DHT22;44310;48.106;12.008;2022-09-27T02:53:38;19.50;81.70
58519;DHT22;44310;48.106;12.008;2022-09-27T03:01:26;19.50;81.90
58519;DHT22;44310;48.106;12.008;2022-09-27T03:04:15;19.50;81.70
58519;DHT22;44310;48.106;12.008;2022-09-27T03:06:45;19.50;81.90
58519;DHT22;44310;48.106;12.008;2022-09-27T03:09:20;19.50;81.80
58519;DHT22;44310;48.106;12.008;2022-09-27T03:11:47;19.50;81.70
58519;DHT22;44310;48.106;12.008;2022-09-27T03:14:15;19.50;81.70
58519;DHT22;44310;48.106;12.008;2022-09-27T03:16:42;19.40;81.50
58519;DHT22;44310;48.106;12.008;2022-09-27T03:19:09;19.40;81.40
58519;DHT22;44310;48.106;12.008;2022-09-27T03:21:37;19.40;81.30
58519;DHT22;44310;48.106;12.008;2022-09-27T03:24:05;19.40;81.30
58519;DHT22;44310;48.106;12.008;2022-09-27T03:26:32;19.40;81.20
58519;DHT22;44310;48.106;12.008;2022-09-27T03:28:59;19.40;81.10
58519;DHT22;44310;48.106;12.008;2022-09-27T03:31:27;19.40;81.10
58519;DHT22;44310;48.106;12.008;2022-09-27T03:33:54;19.30;81.10
58519;DHT22;44310;48.106;12.008;2022-09-27T03:36:21;19.30;81.00
58519;DHT22;44310;48.106;12.008;2022-09-27T03:38:48;19.30;80.90
58519;DHT22;44310;48.106;12.008;2022-09-27T03:41:16;19.70;81.10
58519;DHT22;44310;48.106;12.008;2022-09-27T03:43:43;19.30;81.00
58519;DHT22;44310;48.106;12.008;2022-09-27T03:46:10;19.30;81.10
58519;DHT22;44310;48.106;12.008;2022-09-27T03:48:37;19.30;81.00
58519;DHT22;44310;48.106;12.008;2022-09-27T03:51:04;19.30;80.70
58519;DHT22;44310;48.106;12.008;2022-09-27T03:53:31;19.30;80.60
58519;DHT22;44310;48.106;12.008;2022-09-27T03:55:59;19.40;81.20
58519;DHT22;44310;48.106;12.008;2022-09-27T03:58:26;19.30;80.30
58519;DHT22;44310;48.106;12.008;2022-09-27T04:00:53;20.00;80.60
58519;DHT22;44310;48.106;12.008;2022-09-27T04:03:20;19.30;80.00
58519;DHT22;44310;48.106;12.008;2022-09-27T04:05:48;19.20;79.80
58519;DHT22;44310;48.106;12.008;2022-09-27T04:08:15;19.30;79.80
58519;DHT22;44310;48.106;12.008;2022-09-27T04:10:42;19.40;79.90
58519;DHT22;44310;48.106;12.008;2022-09-27T04:13:09;19.30;79.80
58519;DHT22;44310;48.106;12.008;2022-09-27T04:15:36;19.50;79.80
58519;DHT22;44310;48.106;12.008;2022-09-27T04:18:05;20.60;80.70
58519;DHT22;44310;48.106;12.008;2022-09-27T04:20:33;19.50;80.30
58519;DHT22;44310;48.106;12.008;2022-09-27T04:23:01;19.40;80.20
58519;DHT22;44310;48.106;12.008;2022-09-27T04:25:28;19.30;80.20
58519;DHT22;44310;48.106;12.008;2022-09-27T04:27:55;19.30;80.20
58519;DHT22;44310;48.106;12.008;2022-09-27T04:30:22;19.80;80.40
58519;DHT22;44310;48.106;12.008;2022-09-27T04:32:52;19.30;80.00
58519;DHT22;44310;48.106;12.008;2022-09-27T04:35:19;19.30;80.10
58519;DHT22;44310;48.106;12.008;2022-09-27T04:38:04;19.30;80.10
58519;DHT22;44310;48.106;12.008;2022-09-27T04:40:35;19.30;80.10
58519;DHT22;44310;48.106;12.008;2022-09-27T04:43:02;19.30;80.00
58519;DHT22;44310;48.106;12.008;2022-09-27T04:45:30;19.30;80.00
58519;DHT22;44310;48.106;12.008;2022-09-27T04:47:57;19.30;80.00
58519;DHT22;44310;48.106;12.008;2022-09-27T04:50:24;20.20;80.50
58519;DHT22;44310;48.106;12.008;2022-09-27T04:52:52;19.30;79.90
58519;DHT22;44310;48.106;12.008;2022-09-27T04:55:20;20.30;80.40
58519;DHT22;44310;48.106;12.008;2022-09-27T04:57:48;20.00;80.30
58519;DHT22;44310;48.106;12.008;2022-09-27T05:00:16;19.30;79.80
58519;DHT22;44310;48.106;12.008;2022-09-27T05:02:44;19.30;79.80
58519;DHT22;44310;48.106;12.008;2022-09-27T05:05:11;19.40;79.80
58519;DHT22;44310;48.106;12.008;2022-09-27T05:07:38;19.30;79.70
58519;DHT22;44310;48.106;12.008;2022-09-27T05:10:06;19.30;79.70
58519;DHT22;44310;48.106;12.008;2022-09-27T05:12:34;19.30;79.60
58519;DHT22;44310;48.106;12.008;2022-09-27T05:15:02;19.40;79.50
58519;DHT22;44310;48.106;12.008;2022-09-27T05:17:29;19.30;79.50
58519;DHT22;44310;48.106;12.008;2022-09-27T05:19:57;19.40;79.50
58519;DHT22;44310;48.106;12.008;2022-09-27T05:22:24;19.30;80.10
58519;DHT22;44310;48.106;12.008;2022-09-27T05:24:51;19.40;79.40
58519;DHT22;44310;48.106;12.008;2022-09-27T05:27:18;19.40;79.50
58519;DHT22;44310;48.106;12.008;2022-09-27T05:29:46;19.60;79.60
58519;DHT22;44310;48.106;12.008;2022-09-27T05:32:14;19.40;79.50
58519;DHT22;44310;48.106;12.008;2022-09-27T05:34:41;19.40;79.30
58519;DHT22;44310;48.106;12.008;2022-09-27T05:37:09;19.40;79.30
58519;DHT22;44310;48.106;12.008;2022-09-27T05:39:36;19.30;79.20
58519;DHT22;44310;48.106;12.008;2022-09-27T05:42:03;19.30;79.10
58519;DHT22;44310;48.106;12.008;2022-09-27T05:44:30;19.40;79.10
58519;DHT22;44310;48.106;12.008;2022-09-27T05:47:02;19.30;79.50
58519;DHT22;44310;48.106;12.008;2022-09-27T05:49:33;19.30;78.80
58519;DHT22;44310;48.106;12.008;2022-09-27T05:52:00;19.40;78.90
58519;DHT22;44310;48.106;12.008;2022-09-27T05:54:27;19.30;78.70
58519;DHT22;44310;48.106;12.008;2022-09-27T05:56:56;19.30;78.60
58519;DHT22;44310;48.106;12.008;2022-09-27T05:59:24;19.40;78.70
58519;DHT22;44310;48.106;12.008;2022-09-27T06:01:52;19.30;78.50
58519;DHT22;44310;48.106;12.008;2022-09-27T06:04:20;19.30;78.40
58519;DHT22;44310;48.106;12.008;2022-09-27T06:06:47;19.40;78.50
58519;DHT22;44310;48.106;12.008;2022-09-27T06:09:15;19.30;78.40
58519;DHT22;44310;48.106;12.008;2022-09-27T06:11:43;19.30;78.60
58519;DHT22;44310;48.106;12.008;2022-09-27T06:14:12;19.30;78.70
58519;DHT22;44310;48.106;12.008;2022-09-27T06:16:39;19.40;78.80
58519;DHT22;44310;48.106;12.008;2022-09-27T06:19:07;19.30;78.80
58519;DHT22;44310;48.106;12.008;2022-09-27T06:21:35;19.30;78.80
58519;DHT22;44310;48.106;12.008;2022-09-27T06:24:02;19.70;79.10
58519;DHT22;44310;48.106;12.008;2022-09-27T06:26:29;19.30;78.90
58519;DHT22;44310;48.106;12.008;2022-09-27T06:28:57;19.30;79.00
58519;DHT22;44310;48.106;12.008;2022-09-27T06:31:24;19.30;79.10
58519;DHT22;44310;48.106;12.008;2022-09-27T06:33:51;19.30;79.10
58519;DHT22;44310;48.106;12.008;2022-09-27T06:36:18;19.30;79.10
58519;DHT22;44310;48.106;12.008;2022-09-27T06:38:45;19.30;79.20
58519;DHT22;44310;48.106;12.008;2022-09-27T06:41:15;19.30;79.10
58519;DHT22;44310;48.106;12.008;2022-09-27T06:43:42;19.30;79.00
58519;DHT22;44310;48.106;12.008;2022-09-27T06:46:09;19.40;79.30
58519;DHT22;44310;48.106;12.008;2022-09-27T06:48:37;19.30;79.40
58519;DHT22;44310;48.106;12.008;2022-09-27T06:51:05;19.30;79.40
58519;DHT22;44310;48.106;12.008;2022-09-27T06:53:32;19.30;79.60
58519;DHT22;44310;48.106;12.008;2022-09-27T06:56:00;20.20;80.20
58519;DHT22;44310;48.106;12.008;2022-09-27T06:58:28;19.30;79.70
58519;DHT22;44310;48.106;12.008;2022-09-27T07:01:14;19.30;79.80
58519;DHT22;44310;48.106;12.008;2022-09-27T07:03:41;19.30;79.70
58519;DHT22;44310;48.106;12.008;2022-09-27T07:06:18;19.30;79.70
58519;DHT22;44310;48.106;12.008;2022-09-27T07:08:51;19.20;79.70
58519;DHT22;44310;48.106;12.008;2022-09-27T07:11:19;19.90;80.10
58519;DHT22;44310;48.106;12.008;2022-09-27T07:13:46;19.30;79.70
58519;DHT22;44310;48.106;12.008;2022-09-27T07:16:13;19.30;79.60
58519;DHT22;44310;48.106;12.008;2022-09-27T07:18:41;19.30;79.70
58519;DHT22;44310;48.106;12.008;2022-09-27T07:21:09;19.30;79.60
58519;DHT22;44310;48.106;12.008;2022-09-27T07:23:36;19.40;79.60
58519;DHT22;44310;48.106;12.008;2022-09-27T07:26:04;19.20;79.50
58519;DHT22;44310;48.106;12.008;2022-09-27T07:28:33;19.30;79.60
58519;DHT22;44310;48.106;12.008;2022-09-27T07:31:02;19.30;79.60
58519;DHT22;44310;48.106;12.008;2022-09-27T07:33:30;19.30;79.50
58519;DHT22;44310;48.106;12.008;2022-09-27T07:35:57;19.30;79.50
58519;DHT22;44310;48.106;12.008;2022-09-27T07:38:25;19.20;79.40
58519;DHT22;44310;48.106;12.008;2022-09-27T07:40:54;19.20;79.40
58519;DHT22;44310;48.106;12.008;2022-09-27T07:43:21;19.30;79.70
58519;DHT22;44310;48.106;12.008;2022-09-27T07:45:49;19.10;79.60
58519;DHT22;44310;48.106;12.008;2022-09-27T07:48:16;19.30;79.60
58519;DHT22;44310;48.106;12.008;2022-09-27T07:50:43;19.30;79.50
58519;DHT22;44310;48.106;12.008;2022-09-27T07:53:11;19.20;79.40
58519;DHT22;44310;48.106;12.008;2022-09-27T07:55:40;19.20;79.40
58519;DHT22;44310;48.106;12.008;2022-09-27T07:58:09;19.20;79.40
58519;DHT22;44310;48.106;12.008;2022-09-27T08:00:37;19.30;79.40
58519;DHT22;44310;48.106;12.008;2022-09-27T08:03:11;19.30;79.50
58519;DHT22;44310;48.106;12.008;2022-09-27T08:05:43;19.20;79.50
58519;DHT22;44310;48.106;12.008;2022-09-27T08:08:11;19.20;79.50
58519;DHT22;44310;48.106;12.008;2022-09-27T08:10:38;19.20;79.40
58519;DHT22;44310;48.106;12.008;2022-09-27T08:13:08;19.30;79.30
58519;DHT22;44310;48.106;12.008;2022-09-27T08:15:36;19.30;79.20
58519;DHT22;44310;48.106;12.008;2022-09-27T08:18:06;19.30;79.10
58519;DHT22;44310;48.106;12.008;2022-09-27T08:20:33;19.30;79.10
58519;DHT22;44310;48.106;12.008;2022-09-27T08:23:00;19.20;78.90
58519;DHT22;44310;48.106;12.008;2022-09-27T08:25:30;19.20;78.70
58519;DHT22;44310;48.106;12.008;2022-09-27T08:27:59;19.10;78.00
58519;DHT22;44310;48.106;12.008;2022-09-27T08:30:28;19.00;77.70
58519;DHT22;44310;48.106;12.008;2022-09-27T08:32:58;19.00;77.70
58519;DHT22;44310;48.106;12.008;2022-09-27T08:35:26;18.90;72.30
58519;DHT22;44310;48.106;12.008;2022-09-27T08:37:56;18.40;70.90
58519;DHT22;44310;48.106;12.008;2022-09-27T08:40:50;17.90;69.90
58519;DHT22;44310;48.106;12.008;2022-09-27T08:48:40;18.20;76.40
58519;DHT22;44310;48.106;12.008;2022-09-27T08:51:11;18.40;76.10
58519;DHT22;44310;48.106;12.008;2022-09-27T08:53:50;18.50;75.80
58519;DHT22;44310;48.106;12.008;2022-09-27T08:56:18;18.70;76.00
58519;DHT22;44310;48.106;12.008;2022-09-27T08:58:50;18.70;77.10
58519;DHT22;44310;48.106;12.008;2022-09-27T09:01:18;18.70;75.90
58519;DHT22;44310;48.106;12.008;2022-09-27T09:03:54;18.70;76.60
58519;DHT22;44310;48.106;12.008;2022-09-27T09:12:12;18.80;77.00
58519;DHT22;44310;48.106;12.008;2022-09-27T09:21:02;18.60;76.00
58519;DHT22;44310;48.106;12.008;2022-09-27T09:23:57;18.50;75.20
58519;DHT22;44310;48.106;12.008;2022-09-27T09:29:14;17.90;73.70
58519;DHT22;44310;48.106;12.008;2022-09-27T09:34:45;17.70;75.80
58519;DHT22;44310;48.106;12.008;2022-09-27T09:37:57;17.80;77.40
58519;DHT22;44310;48.106;12.008;2022-09-27T09:40:27;18.00;78.20
58519;DHT22;44310;48.106;12.008;2022-09-27T09:42:57;18.10;77.40
58519;DHT22;44310;48.106;12.008;2022-09-27T09:45:32;18.10;76.80
58519;DHT22;44310;48.106;12.008;2022-09-27T09:50:46;18.20;76.30
58519;DHT22;44310;48.106;12.008;2022-09-27T09:56:16;18.20;76.00
58519;DHT22;44310;48.106;12.008;2022-09-27T09:58:54;18.20;76.00
58519;DHT22;44310;48.106;12.008;2022-09-27T10:01:40;18.20;76.30
58519;DHT22;44310;48.106;12.008;2022-09-27T10:04:18;18.20;76.00
58519;DHT22;44310;48.106;12.008;2022-09-27T10:06:47;18.20;76.40
58519;DHT22;44310;48.106;12.008;2022-09-27T10:09:21;18.30;76.90
58519;DHT22;44310;48.106;12.008;2022-09-27T10:11:49;18.20;76.30
58519;DHT22;44310;48.106;12.008;2022-09-27T10:14:19;18.20;76.60
58519;DHT22;44310;48.106;12.008;2022-09-27T10:16:48;18.30;76.90
58519;DHT22;44310;48.106;12.008;2022-09-27T10:19:26;18.30;77.00
58519;DHT22;44310;48.106;12.008;2022-09-27T10:24:54;18.30;76.40
58519;DHT22;44310;48.106;12.008;2022-09-27T10:27:24;18.40;76.20
58519;DHT22;44310;48.106;12.008;2022-09-27T10:29:58;18.80;76.80
58519;DHT22;44310;48.106;12.008;2022-09-27T10:32:33;18.40;76.70
58519;DHT22;44310;48.106;12.008;2022-09-27T10:38:16;18.40;76.90
58519;DHT22;44310;48.106;12.008;2022-09-27T10:40:50;18.40;76.50
58519;DHT22;44310;48.106;12.008;2022-09-27T10:43:30;18.40;76.50
58519;DHT22;44310;48.106;12.008;2022-09-27T10:46:25;18.40;75.90
58519;DHT22;44310;48.106;12.008;2022-09-27T10:51:59;18.40;76.10
58519;DHT22;44310;48.106;12.008;2022-09-27T10:54:31;18.40;76.00
58519;DHT22;44310;48.106;12.008;2022-09-27T10:57:18;18.40;75.60
58519;DHT22;44310;48.106;12.008;2022-09-27T11:00:19;18.40;75.50
58519;DHT22;44310;48.106;12.008;2022-09-27T11:02:51;18.30;74.80
58519;DHT22;44310;48.106;12.008;2022-09-27T11:07:53;18.30;74.80
58519;DHT22;44310;48.106;12.008;2022-09-27T11:10:26;18.30;75.00
58519;DHT22;44310;48.106;12.008;2022-09-27T11:13:18;18.30;75.80
58519;DHT22;44310;48.106;12.008;2022-09-27T11:27:27;18.30;77.70
58519;DHT22;44310;48.106;12.008;2022-09-27T11:30:15;18.50;77.70
58519;DHT22;44310;48.106;12.008;2022-09-27T11:32:57;18.60;78.00
58519;DHT22;44310;48.106;12.008;2022-09-27T11:36:01;18.70;78.40
58519;DHT22;44310;48.106;12.008;2022-09-27T12:00:18;19.00;79.10
58519;DHT22;44310;48.106;12.008;2022-09-27T12:03:21;19.00;79.20
58519;DHT22;44310;48.106;12.008;2022-09-27T12:08:40;19.00;78.80
58519;DHT22;44310;48.106;12.008;2022-09-27T12:11:44;19.00;78.80
58519;DHT22;44310;48.106;12.008;2022-09-27T12:14:15;18.90;79.00
58519;DHT22;44310;48.106;12.008;2022-09-27T12:16:45;19.00;79.00
58519;DHT22;44310;48.106;12.008;2022-09-27T12:19:18;19.00;78.80
58519;DHT22;44310;48.106;12.008;2022-09-27T12:21:46;18.90;78.70
58519;DHT22;44310;48.106;12.008;2022-09-27T12:24:21;19.00;78.60
58519;DHT22;44310;48.106;12.008;2022-09-27T12:26:55;19.00;78.40
58519;DHT22;44310;48.106;12.008;2022-09-27T12:29:32;19.00;78.00
58519;DHT22;44310;48.106;12.008;2022-09-27T12:32:16;19.00;78.20
58519;DHT22;44310;48.106;12.008;2022-09-27T12:34:53;19.00;78.10
58519;DHT22;44310;48.106;12.008;2022-09-27T12:37:34;19.10;78.10
58519;DHT22;44310;48.106;12.008;2022-09-27T12:40:30;19.00;78.10
58519;DHT22;44310;48.106;12.008;2022-09-27T12:43:22;19.00;78.10
58519;DHT22;44310;48.106;12.008;2022-09-27T12:49:02;19.10;78.50
58519;DHT22;44310;48.106;12.008;2022-09-27T12:51:35;19.10;78.30
58519;DHT22;44310;48.106;12.008;2022-09-27T12:59:59;19.10;78.40
58519;DHT22;44310;48.106;12.008;2022-09-27T13:09:26;19.00;77.80
58519;DHT22;44310;48.106;12.008;2022-09-27T13:23:49;19.10;77.80
58519;DHT22;44310;48.106;12.008;2022-09-27T13:25:56;19.10;77.80
58519;DHT22;44310;48.106;12.008;2022-09-27T13:31:11;19.10;77.70
58519;DHT22;44310;48.106;12.008;2022-09-27T13:33:53;19.10;77.70
58519;DHT22;44310;48.106;12.008;2022-09-27T13:44:44;19.10;77.80
58519;DHT22;44310;48.106;12.008;2022-09-27T13:47:26;19.10;77.90
58519;DHT22;44310;48.106;12.008;2022-09-27T13:52:33;19.20;78.10
58519;DHT22;44310;48.106;12.008;2022-09-27T13:55:05;19.20;78.10
58519;DHT22;44310;48.106;12.008;2022-09-27T13:57:44;19.20;78.10
58519;DHT22;44310;48.106;12.008;2022-09-27T14:00:38;19.20;78.10
58519;DHT22;44310;48.106;12.008;2022-09-27T14:03:51;19.20;78.20
58519;DHT22;44310;48.106;12.008;2022-09-27T14:06:28;19.10;78.10
58519;DHT22;44310;48.106;12.008;2022-09-27T14:09:02;19.10;78.00
58519;DHT22;44310;48.106;12.008;2022-09-27T14:11:36;19.10;78.10
58519;DHT22;44310;48.106;12.008;2022-09-27T14:14:05;19.10;78.10
58519;DHT22;44310;48.106;12.008;2022-09-27T14:16:39;19.20;78.10
58519;DHT22;44310;48.106;12.008;2022-09-27T14:19:14;19.20;78.00
58519;DHT22;44310;48.106;12.008;2022-09-27T14:22:16;19.10;77.90
58519;DHT22;44310;48.106;12.008;2022-09-27T14:24:46;19.10;77.80
58519;DHT22;44310;48.106;12.008;2022-09-27T14:29:48;19.10;77.70
58519;DHT22;44310;48.106;12.008;2022-09-27T14:32:21;19.10;77.60
58519;DHT22;44310;48.106;12.008;2022-09-27T14:35:14;19.10;77.60
58519;DHT22;44310;48.106;12.008;2022-09-27T14:38:02;19.10;77.40
58519;DHT22;44310;48.106;12.008;2022-09-27T14:43:20;19.10;77.10
58519;DHT22;44310;48.106;12.008;2022-09-27T14:45:50;19.10;77.00
58519;DHT22;44310;48.106;12.008;2022-09-27T14:48:28;19.10;76.80
58519;DHT22;44310;48.106;12.008;2022-09-27T14:51:01;19.10;76.60
58519;DHT22;44310;48.106;12.008;2022-09-27T14:53:36;19.10;76.40
58519;DHT22;44310;48.106;12.008;2022-09-27T14:56:11;19.10;76.30
58519;DHT22;44310;48.106;12.008;2022-09-27T14:58:42;19.10;76.20
58519;DHT22;44310;48.106;12.008;2022-09-27T15:01:18;19.10;76.10
58519;DHT22;44310;48.106;12.008;2022-09-27T15:03:46;19.10;76.00
58519;DHT22;44310;48.106;12.008;2022-09-27T15:06:18;19.10;75.70
58519;DHT22;44310;48.106;12.008;2022-09-27T15:08:47;19.10;75.50
58519;DHT22;44310;48.106;12.008;2022-09-27T15:11:17;19.10;75.50
58519;DHT22;44310;48.106;12.008;2022-09-27T15:13:46;19.00;75.50
58519;DHT22;44310;48.106;12.008;2022-09-27T15:16:19;19.00;75.50
58519;DHT22;44310;48.106;12.008;2022-09-27T15:18:48;19.00;75.40
58519;DHT22;44310;48.106;12.008;2022-09-27T15:21:33;19.00;75.30
58519;DHT22;44310;48.106;12.008;2022-09-27T15:24:02;19.00;75.10
58519;DHT22;44310;48.106;12.008;2022-09-27T15:26:36;19.00;75.20
58519;DHT22;44310;48.106;12.008;2022-09-27T15:29:05;19.10;75.20
58519;DHT22;44310;48.106;12.008;2022-09-27T15:31:36;19.10;75.20
58519;DHT22;44310;48.106;12.008;2022-09-27T15:34:03;19.10;75.30
58519;DHT22;44310;48.106;12.008;2022-09-27T15:36:51;19.00;75.10
58519;DHT22;44310;48.106;12.008;2022-09-27T15:42:11;19.00;75.10
58519;DHT22;44310;48.106;12.008;2022-09-27T15:44:54;19.00;75.10
58519;DHT22;44310;48.106;12.008;2022-09-27T15:52:43;19.00;73.30
58519;DHT22;44310;48.106;12.008;2022-09-27T15:55:11;19.00;74.10
58519;DHT22;44310;48.106;12.008;2022-09-27T15:57:39;19.10;74.50
58519;DHT22;44310;48.106;12.008;2022-09-27T16:00:13;19.10;74.40
58519;DHT22;44310;48.106;12.008;2022-09-27T16:02:42;19.10;74.80
58519;DHT22;44310;48.106;12.008;2022-09-27T16:05:10;19.10;74.50
58519;DHT22;44310;48.106;12.008;2022-09-27T16:07:37;19.20;74.40
58519;DHT22;44310;48.106;12.008;2022-09-27T16:10:19;19.20;74.60
58519;DHT22;44310;48.106;12.008;2022-09-27T16:12:46;19.20;74.60
58519;DHT22;44310;48.106;12.008;2022-09-27T16:15:14;19.20;75.30
58519;DHT22;44310;48.106;12.008;2022-09-27T16:17:41;19.20;74.80
58519;DHT22;44310;48.106;12.008;2022-09-27T16:20:24;19.20;74.90
58519;DHT22;44310;48.106;12.008;2022-09-27T16:22:53;19.20;74.90
58519;DHT22;44310;48.106;12.008;2022-09-27T16:25:21;19.20;74.90
58519;DHT22;44310;48.106;12.008;2022-09-27T16:27:49;19.30;75.10
58519;DHT22;44310;48.106;12.008;2022-09-27T16:30:18;19.30;75.00
58519;DHT22;44310;48.106;12.008;2022-09-27T16:32:48;19.30;75.20
58519;DHT22;44310;48.106;12.008;2022-09-27T16:35:16;19.20;75.10
58519;DHT22;44310;48.106;12.008;2022-09-27T16:37:44;19.30;75.20
58519;DHT22;44310;48.106;12.008;2022-09-27T16:40:12;19.30;75.30
58519;DHT22;44310;48.106;12.008;2022-09-27T16:42:41;19.30;75.30
58519;DHT22;44310;48.106;12.008;2022-09-27T16:45:09;19.30;75.50
58519;DHT22;44310;48.106;12.008;2022-09-27T16:47:43;19.20;75.10
58519;DHT22;44310;48.106;12.008;2022-09-27T16:50:12;19.30;75.30
58519;DHT22;44310;48.106;12.008;2022-09-27T16:52:58;19.30;76.00
58519;DHT22;44310;48.106;12.008;2022-09-27T16:55:26;19.30;76.00
58519;DHT22;44310;48.106;12.008;2022-09-27T16:57:58;19.30;76.60
58519;DHT22;44310;48.106;12.008;2022-09-27T17:00:26;19.30;76.70
58519;DHT22;44310;48.106;12.008;2022-09-27T17:02:53;19.30;76.60
58519;DHT22;44310;48.106;12.008;2022-09-27T17:05:20;19.20;76.60
58519;DHT22;44310;48.106;12.008;2022-09-27T17:07:49;19.30;76.80
58519;DHT22;44310;48.106;12.008;2022-09-27T17:10:21;19.30;76.80
58519;DHT22;44310;48.106;12.008;2022-09-27T17:12:48;19.30;77.20
58519;DHT22;44310;48.106;12.008;2022-09-27T17:15:16;19.30;77.50
58519;DHT22;44310;48.106;12.008;2022-09-27T17:17:43;19.30;77.80
58519;DHT22;44310;48.106;12.008;2022-09-27T17:20:11;19.30;78.20
58519;DHT22;44310;48.106;12.008;2022-09-27T17:22:38;19.30;78.40
58519;DHT22;44310;48.106;12.008;2022-09-27T17:25:05;19.30;78.50
58519;DHT22;44310;48.106;12.008;2022-09-27T17:27:33;19.30;78.70
58519;DHT22;44310;48.106;12.008;2022-09-27T17:30:00;19.30;78.70
58519;DHT22;44310;48.106;12.008;2022-09-27T17:32:28;19.20;78.90
58519;DHT22;44310;48.106;12.008;2022-09-27T17:34:55;19.20;78.90
58519;DHT22;44310;48.106;12.008;2022-09-27T17:37:23;19.20;78.90
58519;DHT22;44310;48.106;12.008;2022-09-27T17:39:51;19.20;78.90
58519;DHT22;44310;48.106;12.008;2022-09-27T17:42:18;19.20;78.90
58519;DHT22;44310;48.106;12.008;2022-09-27T17:44:45;19.20;78.90
58519;DHT22;44310;48.106;12.008;2022-09-27T17:47:12;19.20;78.90
58519;DHT22;44310;48.106;12.008;2022-09-27T17:49:57;19.20;78.90
58519;DHT22;44310;48.106;12.008;2022-09-27T17:52:45;19.20;78.80
58519;DHT22;44310;48.106;12.008;2022-09-27T17:55:12;19.20;78.60
58519;DHT22;44310;48.106;12.008;2022-09-27T17:57:40;19.20;78.50
58519;DHT22;44310;48.106;12.008;2022-09-27T18:00:08;19.20;78.40
58519;DHT22;44310;48.106;12.008;2022-09-27T18:02:35;19.20;78.20
58519;DHT22;44310;48.106;12.008;2022-09-27T18:05:03;19.20;78.10
58519;DHT22;44310;48.106;12.008;2022-09-27T18:07:31;19.20;78.00
58519;DHT22;44310;48.106;12.008;2022-09-27T18:09:59;19.20;78.60
58519;DHT22;44310;48.106;12.008;2022-09-27T18:12:29;19.20;77.90
58519;DHT22;44310;48.106;12.008;2022-09-27T18:15:01;19.20;78.00
58519;DHT22;44310;48.106;12.008;2022-09-27T18:17:28;19.20;78.00
58519;DHT22;44310;48.106;12.008;2022-09-27T18:19:56;19.20;78.00
58519;DHT22;44310;48.106;12.008;2022-09-27T18:22:27;19.20;77.90
58519;DHT22;44310;48.106;12.008;2022-09-27T18:24:56;19.20;77.80
58519;DHT22;44310;48.106;12.008;2022-09-27T18:27:23;19.20;77.60
58519;DHT22;44310;48.106;12.008;2022-09-27T18:29:50;19.20;77.40